Airport ID:6S0
Update Time (UTC):26/05/2022 21:42
Wind Speed (Knots):8
Wind Direction (Magnetic):310
Temperature (°C):25.6
Dew Point (°C):-2.3
Humidity (%):15.4
Altimeter (inHg):29.95
Density Altitude (Feet):06800
Visibility (Miles):10
Clouds (Hundreds of feet):CLR
Present Weather:
METAR:METAR 6S0 262140Z AUTO 34007G15KT 300V360 10SM CLR 26/M02 A2996 RMK A01

The data displayed is for advisory purposes only and is not to be used for flight planning or operations.